Time;durP1;ratioP1;P1;durP2;ratioP2;P2;SDS_P1;SDS_P2;PMS_P1;PMS_P2;Temp;Humidity;BMP_temperature;BMP_pressure;BME280_temperature;BME280_humidity;BME280_pressure;Samples;Min_cycle;Max_cycle;Signal;HPM_P1;HPM_P2
2022/12/03 00:00:33;;;;;;;;;;;3.20;99.90;;;;;;6271575;22;20327;-87
2022/12/03 00:02:58;;;;;;;;;;;3.10;99.90;;;;;;6271502;22;19942;-86
2022/12/03 00:05:24;;;;;;;;;;;3.10;99.90;;;;;;6271876;22;19935;-86
2022/12/03 00:07:49;;;;;;;;;;;4.90;99.90;;;;;;6270945;22;20291;-87
2022/12/03 00:10:15;;;;;;;;;;;3.20;99.90;;;;;;6272406;22;19956;-87
2022/12/03 00:12:40;;;;;;;;;;;3.50;99.90;;;;;;6244341;22;20363;-87
2022/12/03 00:15:06;;;;;;;;;;;3.30;99.90;;;;;;6271289;22;19912;-87
2022/12/03 00:17:32;;;;;;;;;;;3.40;99.90;;;;;;6270355;22;19930;-86
2022/12/03 00:19:57;;;;;;;;;;;3.30;99.90;;;;;;6271739;22;19934;-87
2022/12/03 00:22:23;;;;;;;;;;;3.30;99.90;;;;;;6271858;22;19903;-87
2022/12/03 00:24:48;;;;;;;;;;;3.00;99.90;;;;;;6272550;22;19957;-88
2022/12/03 00:27:14;;;;;;;;;;;2.90;99.90;;;;;;6271081;22;20347;-87
2022/12/03 00:29:39;;;;;;;;;;;3.40;99.90;;;;;;6271555;22;20279;-87
2022/12/03 00:32:05;;;;;;;;;;;6.20;99.90;;;;;;6244201;22;19915;-87
2022/12/03 00:34:30;;;;;;;;;;;3.40;99.90;;;;;;6271616;22;19965;-87
2022/12/03 00:36:56;;;;;;;;;;;3.10;99.90;;;;;;6273417;22;19911;-87
2022/12/03 00:39:21;;;;;;;;;;;3.40;99.90;;;;;;6273928;22;19909;-89
2022/12/03 00:41:47;;;;;;;;;;;3.40;99.90;;;;;;6274463;22;19934;-86
2022/12/03 00:44:12;;;;;;;;;;;4.70;99.90;;;;;;6273230;22;19910;-88
2022/12/03 00:46:38;;;;;;;;;;;3.30;99.90;;;;;;6273227;22;19903;-88
2022/12/03 00:49:03;;;;;;;;;;;6.50;99.90;;;;;;6245722;22;20227;-86
2022/12/03 00:51:29;;;;;;;;;;;3.50;99.90;;;;;;6245486;22;19911;-87
2022/12/03 00:53:54;;;;;;;;;;;3.40;99.90;;;;;;6246241;22;20318;-86
2022/12/03 00:56:20;;;;;;;;;;;4.90;99.90;;;;;;6274212;22;19903;-88
2022/12/03 00:58:45;;;;;;;;;;;4.70;99.90;;;;;;6273201;22;19903;-87
2022/12/03 01:01:11;;;;;;;;;;;3.10;99.90;;;;;;6273089;22;19911;-86
2022/12/03 01:03:36;;;;;;;;;;;5.80;99.90;;;;;;6245879;22;19954;-87
2022/12/03 01:06:02;;;;;;;;;;;5.20;99.90;;;;;;6272788;22;20311;-86
2022/12/03 01:08:27;;;;;;;;;;;3.30;99.90;;;;;;6273501;22;19908;-87
2022/12/03 01:10:53;;;;;;;;;;;3.20;99.90;;;;;;6246234;22;19910;-87
2022/12/03 01:13:18;;;;;;;;;;;5.30;99.90;;;;;;6274049;22;19904;-88
2022/12/03 01:15:44;;;;;;;;;;;5.00;99.90;;;;;;6245834;22;19907;-88
2022/12/03 01:18:09;;;;;;;;;;;6.30;99.90;;;;;;6245570;22;19903;-87
2022/12/03 01:20:35;;;;;;;;;;;3.40;99.90;;;;;;6273197;22;19926;-86
2022/12/03 01:23:01;;;;;;;;;;;3.40;99.90;;;;;;6272979;22;19910;-87
2022/12/03 01:25:26;;;;;;;;;;;6.00;99.90;;;;;;6245212;22;19953;-87
2022/12/03 01:27:52;;;;;;;;;;;3.30;99.90;;;;;;6273394;22;19903;-88
2022/12/03 01:30:17;;;;;;;;;;;3.40;99.90;;;;;;6272514;22;19949;-87
2022/12/03 01:32:43;;;;;;;;;;;3.50;99.90;;;;;;6272565;22;20123;-87
2022/12/03 01:35:08;;;;;;;;;;;3.40;99.90;;;;;;6273026;22;20332;-87
2022/12/03 01:37:34;;;;;;;;;;;3.90;99.90;;;;;;6272858;22;19904;-87
2022/12/03 01:39:59;;;;;;;;;;;3.40;99.90;;;;;;6272834;22;19910;-86
2022/12/03 01:42:30;;;;;;;;;;;5.50;99.90;;;;;;6272256;22;19935;-88
2022/12/03 01:44:57;;;;;;;;;;;3.00;99.90;;;;;;6272590;22;19917;-87
2022/12/03 01:47:26;;;;;;;;;;;3.30;99.90;;;;;;6273203;22;19904;-88
2022/12/03 01:49:54;;;;;;;;;;;6.40;99.90;;;;;;6246708;22;19978;-87
2022/12/03 01:52:22;;;;;;;;;;;5.60;99.90;;;;;;6272857;22;19912;-87
2022/12/03 01:54:52;;;;;;;;;;;6.50;99.90;;;;;;6273081;22;19926;-87
2022/12/03 01:57:19;;;;;;;;;;;3.40;99.90;;;;;;6272924;22;19903;-87
2022/12/03 01:59:45;;;;;;;;;;;3.30;99.90;;;;;;6245449;22;19908;-88
2022/12/03 02:02:11;;;;;;;;;;;5.50;99.90;;;;;;6271859;22;19930;-86
2022/12/03 02:04:37;;;;;;;;;;;3.40;99.90;;;;;;6270235;22;19907;-87
2022/12/03 02:07:16;;;;;;;;;;;5.60;99.90;;;;;;6271648;22;19918;-88
2022/12/03 02:09:41;;;;;;;;;;;3.40;99.90;;;;;;6242753;22;19903;-87
2022/12/03 02:12:07;;;;;;;;;;;3.30;99.90;;;;;;6243676;22;19923;-88
2022/12/03 02:14:32;;;;;;;;;;;3.30;99.90;;;;;;6271761;22;19907;-87
2022/12/03 02:16:58;;;;;;;;;;;5.60;99.90;;;;;;6271279;22;20232;-87
2022/12/03 02:19:25;;;;;;;;;;;3.50;99.90;;;;;;6272608;22;19958;-89
2022/12/03 02:22:13;;;;;;;;;;;4.60;99.90;;;;;;6244537;22;20010;-87
2022/12/03 02:24:42;;;;;;;;;;;3.40;99.90;;;;;;6271407;22;20414;-88
2022/12/03 02:27:07;;;;;;;;;;;3.40;99.90;;;;;;6245437;22;19907;-87
2022/12/03 02:29:33;;;;;;;;;;;3.90;99.90;;;;;;6272351;22;19911;-87
2022/12/03 02:31:58;;;;;;;;;;;5.30;99.90;;;;;;6244946;22;19915;-87
2022/12/03 02:34:38;;;;;;;;;;;5.90;99.90;;;;;;6272595;22;20248;-87
2022/12/03 02:37:05;;;;;;;;;;;3.40;99.90;;;;;;6272139;22;19903;-86
2022/12/03 02:39:31;;;;;;;;;;;3.30;99.90;;;;;;6245338;22;19903;-85
2022/12/03 02:44:41;;;;;;;;;;;3.70;99.90;;;;;;6271984;22;19910;-87
2022/12/03 02:47:07;;;;;;;;;;;3.60;99.90;;;;;;6272268;22;19907;-88
2022/12/03 02:49:32;;;;;;;;;;;4.70;99.90;;;;;;6244997;22;19953;-87
2022/12/03 02:51:58;;;;;;;;;;;5.50;99.90;;;;;;6272832;22;19911;-87
2022/12/03 02:54:24;;;;;;;;;;;5.30;99.90;;;;;;6246066;22;19904;-87
2022/12/03 02:56:49;;;;;;;;;;;6.40;99.90;;;;;;6245238;22;19930;-87
2022/12/03 02:59:15;;;;;;;;;;;5.40;99.90;;;;;;6270943;22;19926;-87
2022/12/03 03:01:41;;;;;;;;;;;3.50;99.90;;;;;;6271978;22;20026;-86
2022/12/03 03:04:07;;;;;;;;;;;3.40;99.90;;;;;;6271948;22;19907;-87
2022/12/03 03:06:32;;;;;;;;;;;3.10;99.90;;;;;;6271725;22;19919;-87
2022/12/03 03:08:57;;;;;;;;;;;6.10;99.90;;;;;;6273596;22;19973;-87
2022/12/03 03:11:23;;;;;;;;;;;4.80;99.90;;;;;;6271457;22;20275;-87
2022/12/03 03:13:49;;;;;;;;;;;5.70;99.90;;;;;;6271195;22;19907;-87
2022/12/03 03:16:14;;;;;;;;;;;5.80;99.90;;;;;;6271941;22;19949;-87
2022/12/03 03:18:40;;;;;;;;;;;5.70;99.90;;;;;;6245214;22;19926;-87
2022/12/03 03:21:06;;;;;;;;;;;6.10;99.90;;;;;;6271636;22;19907;-87
2022/12/03 03:23:32;;;;;;;;;;;4.90;99.90;;;;;;6271991;22;19957;-88
2022/12/03 03:25:58;;;;;;;;;;;4.40;99.90;;;;;;6245358;22;19986;-87
2022/12/03 03:28:24;;;;;;;;;;;4.80;99.90;;;;;;6271369;22;19903;-87
2022/12/03 03:30:50;;;;;;;;;;;3.30;99.90;;;;;;6244386;22;20097;-87
2022/12/03 03:33:16;;;;;;;;;;;3.80;99.90;;;;;;6271636;22;19986;-88
2022/12/03 03:35:42;;;;;;;;;;;3.90;99.90;;;;;;6271647;22;19982;-87
2022/12/03 03:38:08;;;;;;;;;;;3.30;99.90;;;;;;6271868;22;19903;-87
2022/12/03 03:40:33;;;;;;;;;;;6.10;99.90;;;;;;6244758;22;19903;-87
2022/12/03 03:42:59;;;;;;;;;;;4.60;99.90;;;;;;6273169;22;19904;-88
2022/12/03 03:45:25;;;;;;;;;;;4.30;99.90;;;;;;6244828;22;19910;-87
2022/12/03 03:47:51;;;;;;;;;;;3.00;99.90;;;;;;6271498;22;19907;-88
2022/12/03 03:50:16;;;;;;;;;;;5.80;99.90;;;;;;6271496;22;19914;-87
2022/12/03 03:52:42;;;;;;;;;;;3.30;99.90;;;;;;6271768;22;19912;-86
2022/12/03 03:55:09;;;;;;;;;;;3.30;99.90;;;;;;6271704;22;19903;-87
2022/12/03 03:57:35;;;;;;;;;;;6.50;99.90;;;;;;6244568;22;19904;-87
2022/12/03 04:00:00;;;;;;;;;;;6.10;99.90;;;;;;6272630;22;19903;-87
2022/12/03 04:02:26;;;;;;;;;;;3.10;99.90;;;;;;6271042;22;19904;-87
2022/12/03 04:04:52;;;;;;;;;;;3.20;99.90;;;;;;6244366;22;20171;-86
2022/12/03 04:07:17;;;;;;;;;;;5.50;99.90;;;;;;6244428;22;19911;-86
2022/12/03 04:09:43;;;;;;;;;;;6.10;99.90;;;;;;6272083;22;19939;-86
2022/12/03 04:14:54;;;;;;;;;;;4.70;99.90;;;;;;6273496;22;20287;-86
2022/12/03 04:17:20;;;;;;;;;;;3.30;99.90;;;;;;6273438;22;20335;-85
2022/12/03 04:19:45;;;;;;;;;;;3.30;99.90;;;;;;6273689;22;20270;-87
2022/12/03 04:28:47;;;;;;;;;;;5.10;99.90;;;;;;6272946;22;20346;-87
2022/12/03 04:30:24;;;;;;;;;;;3.40;99.90;;;;;;6273852;22;19940;-86
2022/12/03 04:35:43;;;;;;;;;;;4.00;99.90;;;;;;6274008;22;19911;-87
2022/12/03 04:38:12;;;;;;;;;;;4.60;99.90;;;;;;6245672;22;19903;-86
2022/12/03 04:43:22;;;;;;;;;;;3.20;99.90;;;;;;6273321;22;19911;-87
2022/12/03 04:45:48;;;;;;;;;;;3.30;99.90;;;;;;6272795;22;19904;-87
2022/12/03 04:48:13;;;;;;;;;;;4.80;99.90;;;;;;6273131;22;19904;-87
2022/12/03 04:50:39;;;;;;;;;;;5.20;99.90;;;;;;6272245;22;19903;-87
2022/12/03 04:53:04;;;;;;;;;;;3.30;99.90;;;;;;6272614;22;19912;-87
2022/12/03 04:55:30;;;;;;;;;;;3.30;99.90;;;;;;6273472;22;19956;-89
2022/12/03 04:57:55;;;;;;;;;;;5.80;99.90;;;;;;6273337;22;19903;-87
2022/12/03 05:00:21;;;;;;;;;;;3.30;99.90;;;;;;6272186;22;19910;-87
2022/12/03 05:02:47;;;;;;;;;;;3.30;99.90;;;;;;6273014;22;19914;-87
2022/12/03 05:05:12;;;;;;;;;;;5.20;99.90;;;;;;6245690;22;19903;-87
2022/12/03 05:07:37;;;;;;;;;;;3.40;99.90;;;;;;6244963;22;19931;-86
2022/12/03 05:10:04;;;;;;;;;;;6.10;99.90;;;;;;6273577;22;19935;-87
2022/12/03 05:12:29;;;;;;;;;;;3.40;99.90;;;;;;6245647;22;20255;-87
2022/12/03 05:14:55;;;;;;;;;;;3.70;99.90;;;;;;6272028;22;20181;-86
2022/12/03 05:17:20;;;;;;;;;;;4.80;99.90;;;;;;6271932;22;19914;-87
2022/12/03 05:22:30;;;;;;;;;;;5.90;99.90;;;;;;6272358;22;19910;-87
2022/12/03 05:24:55;;;;;;;;;;;5.20;99.90;;;;;;6272165;22;20071;-87
2022/12/03 05:27:21;;;;;;;;;;;5.70;99.90;;;;;;6272205;22;19903;-86
2022/12/03 05:29:47;;;;;;;;;;;5.50;99.90;;;;;;6272988;22;20224;-87
2022/12/03 05:32:12;;;;;;;;;;;6.10;99.90;;;;;;6270220;22;19976;-86
2022/12/03 05:34:38;;;;;;;;;;;3.60;99.90;;;;;;6273156;22;19934;-87
2022/12/03 05:37:04;;;;;;;;;;;4.00;99.90;;;;;;6273396;22;20332;-86
2022/12/03 05:39:29;;;;;;;;;;;5.40;99.90;;;;;;6271970;22;19930;-83
2022/12/03 05:44:39;;;;;;;;;;;7.50;99.90;;;;;;6272508;22;19915;-82
2022/12/03 05:47:04;;;;;;;;;;;8.70;99.90;;;;;;6273498;22;19907;-86
2022/12/03 05:49:30;;;;;;;;;;;10.00;99.90;;;;;;6272788;22;19903;-91
2022/12/03 05:51:55;;;;;;;;;;;10.30;99.90;;;;;;6244448;22;20248;-86
2022/12/03 05:54:21;;;;;;;;;;;11.30;99.90;;;;;;6272480;22;19903;-87
2022/12/03 05:56:46;;;;;;;;;;;11.40;99.90;;;;;;6272088;22;19915;-87
2022/12/03 05:59:12;;;;;;;;;;;11.80;99.90;;;;;;6272420;22;19904;-81
2022/12/03 06:01:38;;;;;;;;;;;12.10;99.90;;;;;;6273573;22;19914;-90
2022/12/03 06:04:03;;;;;;;;;;;13.00;99.90;;;;;;6272752;22;19911;-83
2022/12/03 06:06:29;;;;;;;;;;;12.60;99.90;;;;;;6271413;22;19957;-84
2022/12/03 06:08:54;;;;;;;;;;;12.80;99.90;;;;;;6271331;22;19910;-80
2022/12/03 06:11:20;;;;;;;;;;;12.90;99.90;;;;;;6272179;22;19912;-85
2022/12/03 06:13:45;;;;;;;;;;;13.00;99.90;;;;;;6272358;22;19935;-83
2022/12/03 06:16:11;;;;;;;;;;;13.10;99.90;;;;;;6272166;22;20221;-82
2022/12/03 06:18:36;;;;;;;;;;;13.20;99.90;;;;;;6277561;22;19907;-80
2022/12/03 06:21:02;;;;;;;;;;;13.30;99.90;;;;;;6272008;22;19957;-81
2022/12/03 06:23:27;;;;;;;;;;;13.40;99.90;;;;;;6271832;22;19904;-83
2022/12/03 06:25:53;;;;;;;;;;;13.40;99.90;;;;;;6271831;22;20351;-82
2022/12/03 06:28:18;;;;;;;;;;;13.50;99.90;;;;;;6271818;22;19907;-83
2022/12/03 06:30:44;;;;;;;;;;;13.60;99.90;;;;;;6244918;22;19908;-80
2022/12/03 06:33:10;;;;;;;;;;;13.60;99.90;;;;;;6272461;22;19918;-82
2022/12/03 06:35:35;;;;;;;;;;;13.60;99.90;;;;;;6272961;22;19903;-82
2022/12/03 06:38:01;;;;;;;;;;;13.70;99.90;;;;;;6271315;22;20345;-82
2022/12/03 06:40:26;;;;;;;;;;;13.70;99.90;;;;;;6272051;22;19904;-82
2022/12/03 06:42:52;;;;;;;;;;;13.80;99.90;;;;;;6271737;22;20267;-83
2022/12/03 06:45:17;;;;;;;;;;;13.70;99.90;;;;;;6271487;22;19930;-85
2022/12/03 06:47:43;;;;;;;;;;;13.80;99.90;;;;;;6271563;22;19965;-82
2022/12/03 06:50:09;;;;;;;;;;;13.80;99.90;;;;;;6272985;22;19910;-81
2022/12/03 06:52:34;;;;;;;;;;;13.80;99.90;;;;;;6271595;22;20026;-84
2022/12/03 06:55:00;;;;;;;;;;;13.90;99.90;;;;;;6271258;22;19904;-84
2022/12/03 06:57:26;;;;;;;;;;;14.00;99.90;;;;;;6271003;22;19990;-85
2022/12/03 06:59:51;;;;;;;;;;;14.00;99.90;;;;;;6271315;22;19903;-82
2022/12/03 07:02:17;;;;;;;;;;;14.10;99.90;;;;;;6271654;22;19915;-82
2022/12/03 07:04:42;;;;;;;;;;;14.10;99.90;;;;;;6271286;22;19957;-82
2022/12/03 07:07:08;;;;;;;;;;;14.10;99.90;;;;;;6245050;22;20354;-86
2022/12/03 07:09:33;;;;;;;;;;;14.20;99.90;;;;;;6271755;22;19911;-88
2022/12/03 07:11:59;;;;;;;;;;;14.10;99.90;;;;;;6272099;22;20330;-80
2022/12/03 07:14:24;;;;;;;;;;;14.20;99.90;;;;;;6271225;22;19903;-80
2022/12/03 07:16:50;;;;;;;;;;;14.20;99.90;;;;;;6271881;22;19904;-80
2022/12/03 07:19:15;;;;;;;;;;;14.20;99.90;;;;;;6272143;22;19974;-79
2022/12/03 07:21:41;;;;;;;;;;;14.30;99.90;;;;;;6272946;22;20279;-79
2022/12/03 07:24:06;;;;;;;;;;;14.30;99.90;;;;;;6271807;22;19929;-81
2022/12/03 07:26:32;;;;;;;;;;;14.30;99.90;;;;;;6271970;22;20244;-79
2022/12/03 07:28:57;;;;;;;;;;;14.30;99.90;;;;;;6271470;22;19938;-81
2022/12/03 07:31:23;;;;;;;;;;;14.30;99.90;;;;;;6271674;22;19990;-83
2022/12/03 07:33:49;;;;;;;;;;;14.40;99.90;;;;;;6234891;22;19907;-79
2022/12/03 07:36:14;;;;;;;;;;;14.30;99.90;;;;;;6268241;22;19950;-78
2022/12/03 07:38:40;;;;;;;;;;;14.40;99.90;;;;;;6271342;22;19981;-78
2022/12/03 07:41:05;;;;;;;;;;;14.40;99.90;;;;;;6269914;22;19989;-79
2022/12/03 07:43:31;;;;;;;;;;;14.40;99.90;;;;;;6270410;22;20252;-78
2022/12/03 07:45:56;;;;;;;;;;;14.40;99.90;;;;;;6272170;22;19910;-79
2022/12/03 07:48:22;;;;;;;;;;;14.40;99.90;;;;;;6273221;22;19903;-79
2022/12/03 07:50:47;;;;;;;;;;;14.40;99.90;;;;;;6273504;22;19907;-78
2022/12/03 07:53:13;;;;;;;;;;;14.40;99.90;;;;;;6274461;22;19915;-79
2022/12/03 07:55:39;;;;;;;;;;;14.40;99.90;;;;;;6273271;22;20280;-79
2022/12/03 07:58:05;;;;;;;;;;;14.40;99.90;;;;;;6272028;22;19918;-79
2022/12/03 08:00:30;;;;;;;;;;;14.40;99.90;;;;;;6273130;22;19909;-79
2022/12/03 08:02:56;;;;;;;;;;;14.40;99.90;;;;;;6273274;22;19909;-79
2022/12/03 08:05:21;;;;;;;;;;;14.40;99.90;;;;;;6273473;22;19903;-79
2022/12/03 08:07:47;;;;;;;;;;;14.40;99.90;;;;;;6273265;22;19916;-79
2022/12/03 08:10:12;;;;;;;;;;;14.40;99.90;;;;;;6273141;22;19965;-81
2022/12/03 08:12:41;;;;;;;;;;;14.40;99.90;;;;;;6272882;22;19911;-84
2022/12/03 08:15:18;;;;;;;;;;;14.50;99.90;;;;;;6273761;22;19914;-76
2022/12/03 08:17:44;;;;;;;;;;;14.50;99.90;;;;;;6274404;22;20000;-79
2022/12/03 08:20:12;;;;;;;;;;;14.50;99.90;;;;;;6273871;22;20239;-80
2022/12/03 08:22:38;;;;;;;;;;;14.50;99.90;;;;;;6272281;22;19911;-81
2022/12/03 08:25:12;;;;;;;;;;;14.50;99.90;;;;;;6272430;22;20275;-78
2022/12/03 08:27:38;;;;;;;;;;;14.60;99.90;;;;;;6245402;22;19915;-80
2022/12/03 08:30:04;;;;;;;;;;;14.60;99.90;;;;;;6245397;22;19912;-78
2022/12/03 08:32:30;;;;;;;;;;;14.60;99.90;;;;;;6244938;22;19918;-77
2022/12/03 08:34:55;;;;;;;;;;;14.70;99.90;;;;;;6272239;22;19904;-77
2022/12/03 08:37:21;;;;;;;;;;;14.70;99.90;;;;;;6272687;22;19910;-76
2022/12/03 08:39:48;;;;;;;;;;;14.70;99.90;;;;;;6272597;22;19904;-77
2022/12/03 08:42:40;;;;;;;;;;;14.70;99.90;;;;;;6273788;22;19904;-77
2022/12/03 08:45:21;;;;;;;;;;;14.70;99.90;;;;;;6245305;22;19911;-76
2022/12/03 08:47:47;;;;;;;;;;;14.70;99.90;;;;;;6272732;22;19949;-77
2022/12/03 08:50:24;;;;;;;;;;;14.70;99.90;;;;;;6246783;22;19903;-77
2022/12/03 08:52:50;;;;;;;;;;;14.70;99.90;;;;;;6272840;22;19911;-78
2022/12/03 08:55:31;;;;;;;;;;;14.80;99.90;;;;;;6273304;22;20331;-76
2022/12/03 08:57:57;;;;;;;;;;;14.70;99.90;;;;;;6272811;22;19903;-77
2022/12/03 09:00:23;;;;;;;;;;;14.80;99.90;;;;;;6272169;22;20443;-78
2022/12/03 09:02:50;;;;;;;;;;;14.70;99.90;;;;;;6269517;22;20298;-77
2022/12/03 09:05:18;;;;;;;;;;;14.70;99.90;;;;;;6246636;22;19903;-77
2022/12/03 09:07:43;;;;;;;;;;;14.70;99.90;;;;;;6273490;22;20328;-77
2022/12/03 09:10:09;;;;;;;;;;;14.80;99.90;;;;;;6272077;22;19957;-77
2022/12/03 09:12:34;;;;;;;;;;;14.80;99.90;;;;;;6272669;22;19918;-79
2022/12/03 09:15:00;;;;;;;;;;;14.80;99.90;;;;;;6272988;22;20359;-76
2022/12/03 09:17:25;;;;;;;;;;;14.80;99.90;;;;;;6273035;22;19907;-76
2022/12/03 09:19:51;;;;;;;;;;;14.80;99.90;;;;;;6273127;22;19903;-77
2022/12/03 09:22:17;;;;;;;;;;;14.80;99.90;;;;;;6274160;22;20307;-79
2022/12/03 09:24:42;;;;;;;;;;;14.80;99.90;;;;;;6272796;22;19949;-76
2022/12/03 09:27:08;;;;;;;;;;;14.90;99.90;;;;;;6272411;22;20002;-77
2022/12/03 09:29:33;;;;;;;;;;;14.90;99.90;;;;;;6272732;22;19903;-77
2022/12/03 09:31:59;;;;;;;;;;;15.00;99.90;;;;;;6272854;22;19907;-76
2022/12/03 09:34:24;;;;;;;;;;;14.90;99.90;;;;;;6272501;22;19907;-76
2022/12/03 09:36:50;;;;;;;;;;;15.00;99.90;;;;;;6271958;22;20225;-76
2022/12/03 09:39:15;;;;;;;;;;;15.00;99.90;;;;;;6246868;22;19910;-77
2022/12/03 09:41:41;;;;;;;;;;;15.00;99.90;;;;;;6272862;22;19910;-77
2022/12/03 09:44:08;;;;;;;;;;;15.00;99.90;;;;;;6272707;22;19970;-77
2022/12/03 09:46:34;;;;;;;;;;;15.00;99.90;;;;;;6272449;22;19903;-77
2022/12/03 09:49:00;;;;;;;;;;;15.00;99.90;;;;;;6272822;22;19935;-76
2022/12/03 09:51:29;;;;;;;;;;;15.10;99.90;;;;;;6272248;22;19907;-77
2022/12/03 09:53:54;;;;;;;;;;;15.10;99.90;;;;;;6272764;22;19903;-77
2022/12/03 09:56:21;;;;;;;;;;;15.10;99.90;;;;;;6272739;22;19910;-76
2022/12/03 09:58:47;;;;;;;;;;;15.20;99.90;;;;;;6273737;22;19909;-77
2022/12/03 10:01:13;;;;;;;;;;;15.10;99.90;;;;;;6272822;22;19903;-77
2022/12/03 10:03:42;;;;;;;;;;;15.20;99.90;;;;;;6245830;22;19903;-77
2022/12/03 10:06:09;;;;;;;;;;;15.20;99.90;;;;;;6272587;22;19907;-76
2022/12/03 10:08:35;;;;;;;;;;;15.20;99.90;;;;;;6271769;22;19949;-77
2022/12/03 10:11:00;;;;;;;;;;;15.20;99.90;;;;;;6272059;22;20243;-77
2022/12/03 10:13:29;;;;;;;;;;;15.20;99.90;;;;;;6272505;22;20294;-77
2022/12/03 10:15:56;;;;;;;;;;;15.20;99.90;;;;;;6272817;22;19903;-76
2022/12/03 10:18:26;;;;;;;;;;;15.20;99.90;;;;;;6272471;22;20281;-76
2022/12/03 10:20:52;;;;;;;;;;;15.30;99.90;;;;;;6272644;22;19978;-77
2022/12/03 10:23:25;;;;;;;;;;;15.30;99.90;;;;;;6272207;22;19996;-77
2022/12/03 10:25:54;;;;;;;;;;;15.30;99.90;;;;;;6272940;22;19982;-77
2022/12/03 10:28:27;;;;;;;;;;;15.30;99.90;;;;;;6273674;22;19908;-78
2022/12/03 10:30:56;;;;;;;;;;;15.40;99.90;;;;;;6271949;22;20340;-81
2022/12/03 10:33:27;;;;;;;;;;;15.30;99.90;;;;;;6272851;22;19911;-76
2022/12/03 10:35:52;;;;;;;;;;;15.30;99.90;;;;;;6272355;22;19982;-79
2022/12/03 10:38:21;;;;;;;;;;;15.40;99.90;;;;;;6272820;22;19954;-79
2022/12/03 10:40:46;;;;;;;;;;;15.40;99.90;;;;;;6272108;22;20000;-77
2022/12/03 10:43:12;;;;;;;;;;;15.40;99.90;;;;;;6271663;22;19911;-78
2022/12/03 10:45:37;;;;;;;;;;;15.40;99.90;;;;;;6272317;22;19907;-78
2022/12/03 10:48:03;;;;;;;;;;;15.40;99.90;;;;;;6272134;22;19910;-78
2022/12/03 10:50:28;;;;;;;;;;;15.40;99.90;;;;;;6272092;22;19903;-76
2022/12/03 10:52:54;;;;;;;;;;;15.50;99.90;;;;;;6271943;22;19911;-77
2022/12/03 10:55:19;;;;;;;;;;;15.50;99.90;;;;;;6245662;22;19978;-77
2022/12/03 10:57:46;;;;;;;;;;;15.50;99.90;;;;;;6272154;22;20240;-77
2022/12/03 11:00:15;;;;;;;;;;;15.50;99.90;;;;;;6272176;22;19938;-78
2022/12/03 11:02:40;;;;;;;;;;;15.50;99.90;;;;;;6272065;22;19903;-77
2022/12/03 11:05:06;;;;;;;;;;;15.50;99.90;;;;;;6272028;22;19908;-80
2022/12/03 11:07:31;;;;;;;;;;;15.50;99.90;;;;;;6244864;22;19956;-81
2022/12/03 11:09:59;;;;;;;;;;;15.60;99.90;;;;;;6272006;22;19903;-79
2022/12/03 11:12:25;;;;;;;;;;;15.60;99.90;;;;;;6270877;22;19918;-79
2022/12/03 11:14:54;;;;;;;;;;;15.60;99.90;;;;;;6245783;22;19903;-79
2022/12/03 11:17:40;;;;;;;;;;;15.60;99.90;;;;;;6272582;22;19903;-79
2022/12/03 11:20:11;;;;;;;;;;;15.60;99.90;;;;;;6271303;22;19903;-80
2022/12/03 11:22:44;;;;;;;;;;;15.60;99.90;;;;;;6244732;22;19910;-80
2022/12/03 11:25:36;;;;;;;;;;;15.60;99.90;;;;;;6272138;22;19903;-77
2022/12/03 11:28:14;;;;;;;;;;;15.70;99.90;;;;;;6214093;22;19903;-78
2022/12/03 11:30:48;;;;;;;;;;;15.70;99.90;;;;;;6271699;22;19939;-80
2022/12/03 11:33:22;;;;;;;;;;;15.70;99.90;;;;;;6271652;22;19915;-79
2022/12/03 11:36:03;;;;;;;;;;;15.70;99.90;;;;;;6271739;22;19903;-79
2022/12/03 11:38:39;;;;;;;;;;;15.70;99.90;;;;;;6244429;22;19915;-79
2022/12/03 11:41:26;;;;;;;;;;;15.70;99.90;;;;;;6271571;22;19903;-78
2022/12/03 11:43:52;;;;;;;;;;;15.70;99.90;;;;;;6272537;22;19911;-78
2022/12/03 11:46:25;;;;;;;;;;;15.80;99.90;;;;;;6271276;22;20087;-77
2022/12/03 11:48:52;;;;;;;;;;;15.80;99.90;;;;;;6272009;22;19914;-78
2022/12/03 11:51:20;;;;;;;;;;;15.90;99.90;;;;;;6271511;22;19903;-78
2022/12/03 11:53:46;;;;;;;;;;;15.90;99.90;;;;;;6271494;22;19907;-78
2022/12/03 11:56:17;;;;;;;;;;;16.00;99.90;;;;;;6271768;22;19957;-79
2022/12/03 11:58:44;;;;;;;;;;;16.00;99.90;;;;;;6244312;22;19972;-78
2022/12/03 12:01:09;;;;;;;;;;;16.10;99.90;;;;;;6271472;22;19903;-79
2022/12/03 12:03:48;;;;;;;;;;;16.10;99.90;;;;;;6271023;22;20228;-78
2022/12/03 12:06:15;;;;;;;;;;;16.20;99.90;;;;;;6271552;22;20244;-77
2022/12/03 12:08:53;;;;;;;;;;;16.30;99.90;;;;;;6244466;22;19909;-78
2022/12/03 12:11:24;;;;;;;;;;;16.30;99.90;;;;;;6271303;22;19910;-78
2022/12/03 12:13:49;;;;;;;;;;;16.30;99.90;;;;;;6271069;22;19910;-81
2022/12/03 12:16:34;;;;;;;;;;;16.30;99.90;;;;;;6270965;22;19903;-77
2022/12/03 12:19:19;;;;;;;;;;;16.40;99.90;;;;;;6271592;22;20247;-78
2022/12/03 12:21:46;;;;;;;;;;;16.40;99.90;;;;;;6271289;22;19948;-78
2022/12/03 12:24:31;;;;;;;;;;;16.40;99.90;;;;;;6271562;22;19904;-78
2022/12/03 12:26:58;;;;;;;;;;;16.50;99.90;;;;;;6272330;22;20033;-77
2022/12/03 12:29:23;;;;;;;;;;;16.50;99.90;;;;;;6272845;22;19904;-79
2022/12/03 12:31:49;;;;;;;;;;;16.50;99.90;;;;;;6271697;22;19907;-78
2022/12/03 12:34:15;;;;;;;;;;;16.60;99.90;;;;;;6273427;22;19986;-78
2022/12/03 12:36:40;;;;;;;;;;;16.60;99.90;;;;;;6273388;22;19931;-79
2022/12/03 12:39:10;;;;;;;;;;;16.60;99.90;;;;;;6245923;22;20335;-78
2022/12/03 12:41:36;;;;;;;;;;;16.70;99.90;;;;;;6273368;22;19904;-79
2022/12/03 12:44:07;;;;;;;;;;;16.70;99.90;;;;;;6273221;22;19927;-78
2022/12/03 12:46:32;;;;;;;;;;;16.60;99.90;;;;;;6272913;22;19910;-78
2022/12/03 12:48:58;;;;;;;;;;;16.60;99.90;;;;;;6273694;22;19907;-77
2022/12/03 12:51:23;;;;;;;;;;;16.60;99.90;;;;;;6273806;22;20251;-77
2022/12/03 12:53:49;;;;;;;;;;;16.60;99.90;;;;;;6273004;22;19907;-77
2022/12/03 12:56:21;;;;;;;;;;;16.50;99.90;;;;;;6272965;22;19903;-77
2022/12/03 12:58:46;;;;;;;;;;;16.40;99.90;;;;;;6273321;22;19904;-77
2022/12/03 13:01:25;;;;;;;;;;;16.40;99.90;;;;;;6275549;22;19903;-77
2022/12/03 13:03:51;;;;;;;;;;;16.30;99.90;;;;;;6272708;22;19903;-77
2022/12/03 13:06:18;;;;;;;;;;;16.30;99.90;;;;;;6272993;22;20383;-77
2022/12/03 13:08:45;;;;;;;;;;;16.30;99.90;;;;;;6273351;22;19903;-79
2022/12/03 13:11:33;;;;;;;;;;;16.20;99.90;;;;;;6272991;22;20276;-78
2022/12/03 13:14:00;;;;;;;;;;;16.20;99.90;;;;;;6273480;22;20343;-78
2022/12/03 13:16:29;;;;;;;;;;;16.10;99.90;;;;;;6273562;22;19904;-79
2022/12/03 13:18:56;;;;;;;;;;;16.10;99.90;;;;;;6273732;22;19903;-84
2022/12/03 13:21:38;;;;;;;;;;;16.00;99.90;;;;;;6245975;22;19904;-84
2022/12/03 13:24:22;;;;;;;;;;;16.00;99.90;;;;;;6273198;22;19910;-83
2022/12/03 13:26:47;;;;;;;;;;;16.00;99.90;;;;;;6272641;22;19975;-82
2022/12/03 13:29:14;;;;;;;;;;;16.00;99.90;;;;;;6272259;22;19946;-81
2022/12/03 13:31:40;;;;;;;;;;;16.00;99.90;;;;;;6272973;22;19908;-80
2022/12/03 13:34:15;;;;;;;;;;;15.90;99.90;;;;;;6272861;22;20347;-83
2022/12/03 13:36:41;;;;;;;;;;;15.90;99.90;;;;;;6272955;22;19904;-83
2022/12/03 13:39:21;;;;;;;;;;;16.00;99.90;;;;;;6271606;22;19911;-79
2022/12/03 13:44:32;;;;;;;;;;;15.90;99.90;;;;;;6272589;22;20355;-85
2022/12/03 13:47:09;;;;;;;;;;;16.00;99.90;;;;;;6273761;22;20389;-85
2022/12/03 13:49:34;;;;;;;;;;;16.00;99.90;;;;;;6272780;22;19907;-84
2022/12/03 13:52:00;;;;;;;;;;;16.00;99.90;;;;;;6273552;22;19916;-84
2022/12/03 13:54:28;;;;;;;;;;;16.00;99.90;;;;;;6272002;22;19903;-85
2022/12/03 13:56:54;;;;;;;;;;;16.10;99.90;;;;;;6272631;22;19910;-85
2022/12/03 13:59:20;;;;;;;;;;;16.00;99.90;;;;;;6245603;22;19903;-85
2022/12/03 14:01:45;;;;;;;;;;;16.00;99.90;;;;;;6272648;22;19910;-81
2022/12/03 14:04:11;;;;;;;;;;;16.00;99.90;;;;;;6271637;22;19910;-83
2022/12/03 14:06:36;;;;;;;;;;;16.00;99.90;;;;;;6272529;22;19911;-81
2022/12/03 14:09:03;;;;;;;;;;;16.00;99.90;;;;;;6273233;22;19903;-83
2022/12/03 14:14:12;;;;;;;;;;;16.00;99.90;;;;;;6272014;22;20254;-81
2022/12/03 14:16:37;;;;;;;;;;;16.00;99.90;;;;;;6272421;22;20351;-82
2022/12/03 14:19:03;;;;;;;;;;;15.90;99.90;;;;;;6272826;22;20241;-81
2022/12/03 14:21:29;;;;;;;;;;;16.00;99.90;;;;;;6273310;22;19907;-84
2022/12/03 14:23:54;;;;;;;;;;;15.90;99.90;;;;;;6248046;22;19911;-79
2022/12/03 14:26:20;;;;;;;;;;;16.00;99.90;;;;;;6244839;22;19910;-79
2022/12/03 14:28:45;;;;;;;;;;;15.90;99.90;;;;;;6272384;22;19903;-79
2022/12/03 14:31:11;;;;;;;;;;;15.90;99.90;;;;;;6272148;22;20239;-80
2022/12/03 14:33:36;;;;;;;;;;;15.90;99.90;;;;;;6272406;22;19935;-77
2022/12/03 14:36:02;;;;;;;;;;;15.90;99.90;;;;;;6273167;22;20328;-80
2022/12/03 14:38:27;;;;;;;;;;;15.90;99.90;;;;;;6271818;22;19907;-79
2022/12/03 14:40:53;;;;;;;;;;;16.00;99.90;;;;;;6271788;22;19957;-80
2022/12/03 14:43:18;;;;;;;;;;;16.00;99.90;;;;;;6244419;22;19914;-81
2022/12/03 14:45:44;;;;;;;;;;;16.00;99.90;;;;;;6271255;22;20351;-79
2022/12/03 14:48:09;;;;;;;;;;;16.00;99.90;;;;;;6245006;22;19984;-79